Time,TemperatureF,DewpointF,PressureIn,WindDirection,WindDirectionDegrees,WindSpeedMPH,WindSpeedGustMPH,Humidity,HourlyPrecipIn,Conditions,Clouds,dailyrainin,SoftwareType,DateUTC
2013-11-05 01:10:00,51.4,47.7,29.84,South,174,0.0,0.0,87,0.00,,,0.00,Wunderground v.1.15,2013-11-05 09:10:00,
2013-11-05 01:25:00,51.0,47.3,29.84,South,174,0.0,0.0,87,0.00,,,0.00,Wunderground v.1.15,2013-11-05 09:25:00,
2013-11-05 01:30:00,50.8,47.1,29.84,South,174,0.0,1.0,87,0.00,,,0.00,Wunderground v.1.15,2013-11-05 09:30:00,
2013-11-05 01:45:00,50.5,46.8,29.83,South,174,0.0,1.0,87,0.00,,,0.00,Wunderground v.1.15,2013-11-05 09:45:00,
2013-11-05 01:50:00,50.5,47.1,29.83,South,174,0.0,1.0,88,0.00,,,0.00,Wunderground v.1.15,2013-11-05 09:50:00,
2013-11-05 01:55:00,50.4,47.0,29.83,South,174,0.0,0.0,88,0.00,,,0.00,Wunderground v.1.15,2013-11-05 09:55:00,
2013-11-05 02:05:00,50.2,46.8,29.83,South,174,0.0,0.0,88,0.00,,,0.00,Wunderground v.1.15,2013-11-05 10:05:00,
2013-11-05 02:10:00,50.1,46.7,29.83,South,174,0.0,0.0,88,0.00,,,0.00,Wunderground v.1.15,2013-11-05 10:10:00,
2013-11-05 02:15:00,50.1,46.7,29.83,South,174,0.0,0.0,88,0.00,,,0.00,Wunderground v.1.15,2013-11-05 10:15:00,
2013-11-05 02:30:00,49.6,46.2,29.83,South,174,0.0,0.0,88,0.00,,,0.00,Wunderground v.1.15,2013-11-05 10:30:00,
2013-11-05 02:35:00,49.6,46.2,29.84,South,174,0.0,0.0,88,0.00,,,0.00,Wunderground v.1.15,2013-11-05 10:35:00,
2013-11-05 02:50:00,49.3,45.9,29.84,South,174,0.0,0.0,88,0.00,,,0.00,Wunderground v.1.15,2013-11-05 10:50:00,
2013-11-05 02:55:00,49.2,46.1,29.84,South,174,0.0,0.0,89,0.00,,,0.00,Wunderground v.1.15,2013-11-05 10:55:00,
2013-11-05 03:00:00,49.2,45.8,29.84,South,174,0.0,0.0,88,0.00,,,0.00,Wunderground v.1.15,2013-11-05 11:00:00,
2013-11-05 03:10:00,49.0,45.9,29.85,South,174,0.0,0.0,89,0.00,,,0.00,Wunderground v.1.15,2013-11-05 11:10:00,
2013-11-05 03:15:00,48.9,45.8,29.85,South,174,0.0,0.0,89,0.00,,,0.00,Wunderground v.1.15,2013-11-05 11:15:00,
2013-11-05 03:25:00,48.7,45.6,29.86,South,174,0.0,0.0,89,0.00,,,0.00,Wunderground v.1.15,2013-11-05 11:25:00,
2013-11-05 03:30:00,48.6,45.5,29.86,South,174,0.0,0.0,89,0.00,,,0.00,Wunderground v.1.15,2013-11-05 11:30:00,
2013-11-05 03:35:00,48.4,45.3,29.87,South,174,0.0,0.0,89,0.00,,,0.00,Wunderground v.1.15,2013-11-05 11:35:00,
2013-11-05 03:46:00,48.4,45.3,29.87,South,174,0.0,0.0,89,0.00,,,0.00,Wunderground v.1.15,2013-11-05 11:46:00,
2013-11-05 03:50:00,48.3,45.2,29.87,South,174,0.0,0.0,89,0.00,,,0.00,Wunderground v.1.15,2013-11-05 11:50:00,
2013-11-05 03:55:00,48.1,45.0,29.87,South,174,0.0,0.0,89,0.00,,,0.00,Wunderground v.1.15,2013-11-05 11:55:00,
2013-11-05 04:10:00,48.1,45.0,29.87,South,174,0.0,0.0,89,0.00,,,0.00,Wunderground v.1.15,2013-11-05 12:10:00,
2013-11-05 04:15:00,48.0,45.2,29.87,South,174,0.0,0.0,90,0.00,,,0.00,Wunderground v.1.15,2013-11-05 12:15:00,
2013-11-05 04:26:00,47.7,44.9,29.87,South,174,0.0,0.0,90,0.00,,,0.00,Wunderground v.1.15,2013-11-05 12:26:00,
2013-11-05 04:30:00,47.7,44.9,29.87,South,174,0.0,0.0,90,0.00,,,0.00,Wunderground v.1.15,2013-11-05 12:30:00,
2013-11-05 04:40:00,47.6,44.8,29.88,South,174,0.0,0.0,90,0.00,,,0.00,Wunderground v.1.15,2013-11-05 12:40:00,
2013-11-05 04:50:00,47.3,44.5,29.88,South,174,0.0,0.0,90,0.00,,,0.00,Wunderground v.1.15,2013-11-05 12:50:00,
2013-11-05 05:00:00,47.3,44.5,29.88,South,174,0.0,0.0,90,0.00,,,0.00,Wunderground v.1.15,2013-11-05 13:00:00,
2013-11-05 05:11:00,47.0,44.2,29.88,South,174,0.0,0.0,90,0.00,,,0.00,Wunderground v.1.15,2013-11-05 13:11:00,
2013-11-05 05:16:00,46.8,44.0,29.88,South,174,0.0,0.0,90,0.00,,,0.00,Wunderground v.1.15,2013-11-05 13:16:00,
2013-11-05 05:20:00,46.8,44.0,29.88,South,174,0.0,0.0,90,0.00,,,0.00,Wunderground v.1.15,2013-11-05 13:20:00,
2013-11-05 05:25:00,46.8,44.0,29.88,South,174,0.0,0.0,90,0.00,,,0.00,Wunderground v.1.15,2013-11-05 13:25:00,
2013-11-05 05:40:00,46.7,44.2,29.89,South,174,0.0,0.0,91,0.00,,,0.00,Wunderground v.1.15,2013-11-05 13:40:00,
2013-11-05 05:45:00,46.7,44.2,29.89,South,174,0.0,0.0,91,0.00,,,0.00,Wunderground v.1.15,2013-11-05 13:45:00,
2013-11-05 05:50:00,46.8,44.3,29.89,South,174,0.0,0.0,91,0.00,,,0.00,Wunderground v.1.15,2013-11-05 13:50:00,
2013-11-05 06:00:00,47.0,44.5,29.90,South,174,0.0,0.0,91,0.00,,,0.00,Wunderground v.1.15,2013-11-05 14:00:00,
2013-11-05 06:05:00,47.0,44.5,29.90,South,174,0.0,0.0,91,0.00,,,0.00,Wunderground v.1.15,2013-11-05 14:05:00,
2013-11-05 06:10:00,46.8,44.3,29.90,South,174,0.0,0.0,91,0.00,,,0.00,Wunderground v.1.15,2013-11-05 14:10:00,
2013-11-05 06:25:00,46.7,44.2,29.91,South,181,0.0,1.0,91,0.00,,,0.00,Wunderground v.1.15,2013-11-05 14:25:00,
2013-11-05 06:40:00,47.1,44.6,29.91,South,182,0.0,1.0,91,0.00,,,0.00,Wunderground v.1.15,2013-11-05 14:40:00,
2013-11-05 06:50:00,47.3,44.8,29.92,SW,223,0.0,0.0,91,0.00,,,0.00,Wunderground v.1.15,2013-11-05 14:50:00,
2013-11-05 06:55:00,47.4,44.9,29.92,SW,223,0.0,0.0,91,0.00,,,0.00,Wunderground v.1.15,2013-11-05 14:55:00,
2013-11-05 07:05:00,48.7,46.5,29.93,SW,233,1.0,1.0,92,0.00,,,0.00,Wunderground v.1.15,2013-11-05 15:05:00,
2013-11-05 07:10:00,49.3,47.1,29.93,NW,311,1.0,1.0,92,0.00,,,0.00,Wunderground v.1.15,2013-11-05 15:10:00,
2013-11-05 07:15:00,49.9,47.7,29.93,NW,311,1.0,1.0,92,0.00,,,0.00,Wunderground v.1.15,2013-11-05 15:15:00,
2013-11-05 07:20:00,50.7,48.5,29.94,NW,311,1.0,1.0,92,0.00,,,0.00,Wunderground v.1.15,2013-11-05 15:20:00,
2013-11-05 07:30:00,51.7,49.5,29.95,NW,326,2.0,2.0,92,0.00,,,0.00,Wunderground v.1.15,2013-11-05 15:30:00,
2013-11-05 07:35:00,52.3,50.0,29.95,NW,326,2.0,2.0,92,0.00,,,0.00,Wunderground v.1.15,2013-11-05 15:35:00,
2013-11-05 07:40:00,52.7,50.4,29.95,NW,326,1.0,1.0,92,0.00,,,0.00,Wunderground v.1.15,2013-11-05 15:40:00,
2013-11-05 07:45:00,53.2,50.6,29.95,NW,326,1.0,1.0,91,0.00,,,0.00,Wunderground v.1.15,2013-11-05 15:45:00,
2013-11-05 08:00:00,55.5,52.6,29.95,NW,326,1.0,3.0,90,0.00,,,0.00,Wunderground v.1.15,2013-11-05 16:00:00,
2013-11-05 08:05:00,56.1,52.9,29.96,NW,326,1.0,3.0,89,0.00,,,0.00,Wunderground v.1.15,2013-11-05 16:05:00,
2013-11-05 08:10:00,56.8,53.3,29.96,NW,326,0.0,2.0,88,0.00,,,0.00,Wunderground v.1.15,2013-11-05 16:10:00,
2013-11-05 08:21:00,57.7,53.2,29.96,NW,326,0.0,0.0,85,0.00,,,0.00,Wunderground v.1.15,2013-11-05 16:21:00,
2013-11-05 08:25:00,58.0,53.2,29.96,NW,326,0.0,1.0,84,0.00,,,0.00,Wunderground v.1.15,2013-11-05 16:25:00,
2013-11-05 08:30:00,58.4,53.3,29.96,NW,326,1.0,2.0,83,0.00,,,0.00,Wunderground v.1.15,2013-11-05 16:30:00,
2013-11-05 08:40:00,59.0,52.8,29.98,NNW,328,2.0,2.0,80,0.00,,,0.00,Wunderground v.1.15,2013-11-05 16:40:00,
2013-11-05 08:45:00,59.5,53.0,29.98,NNW,328,2.0,2.0,79,0.00,,,0.00,Wunderground v.1.15,2013-11-05 16:45:00,
2013-11-05 08:50:00,60.0,52.8,29.97,NNW,328,2.0,2.0,77,0.00,,,0.00,Wunderground v.1.15,2013-11-05 16:50:00,
2013-11-05 09:06:00,61.6,51.7,29.97,North,0,3.0,3.0,70,0.00,,,0.00,Wunderground v.1.15,2013-11-05 17:06:00,
2013-11-05 09:10:00,62.2,51.5,29.97,NNW,329,3.0,3.0,68,0.00,,,0.00,Wunderground v.1.15,2013-11-05 17:10:00,
2013-11-05 09:15:00,62.4,51.3,29.97,NW,326,3.0,3.0,67,0.00,,,0.00,Wunderground v.1.15,2013-11-05 17:15:00,
2013-11-05 09:20:00,63.2,50.8,29.98,North,0,2.0,2.0,64,0.00,,,0.00,Wunderground v.1.15,2013-11-05 17:20:00,
2013-11-05 09:25:00,63.8,50.5,29.98,NW,318,2.0,2.0,62,0.00,,,0.00,Wunderground v.1.15,2013-11-05 17:25:00,
2013-11-05 09:40:00,65.8,49.2,29.98,North,0,2.0,2.0,55,0.00,,,0.00,Wunderground v.1.15,2013-11-05 17:40:00,
2013-11-05 09:50:00,66.9,47.1,29.98,NNW,332,2.0,5.0,49,0.00,,,0.00,Wunderground v.1.15,2013-11-05 17:50:00,
2013-11-05 10:00:00,67.8,45.1,29.98,North,352,3.0,3.0,44,0.00,,,0.00,Wunderground v.1.15,2013-11-05 18:00:00,
2013-11-05 10:05:00,68.6,46.4,29.98,North,354,2.0,3.0,45,0.00,,,0.00,Wunderground v.1.15,2013-11-05 18:05:00,
2013-11-05 10:10:00,68.9,44.2,29.98,North,357,2.0,2.0,41,0.00,,,0.00,Wunderground v.1.15,2013-11-05 18:10:00,
2013-11-05 10:15:00,69.1,43.8,29.98,North,357,2.0,2.0,40,0.00,,,0.00,Wunderground v.1.15,2013-11-05 18:15:00,
2013-11-05 10:30:00,70.6,41.6,29.98,NNW,344,2.0,3.0,35,0.00,,,0.00,Wunderground v.1.15,2013-11-05 18:30:00,
2013-11-05 10:35:00,71.0,41.2,29.98,North,352,2.0,3.0,34,0.00,,,0.00,Wunderground v.1.15,2013-11-05 18:35:00,
2013-11-05 10:51:00,72.5,41.0,29.97,North,352,2.0,2.0,32,0.00,,,0.00,Wunderground v.1.15,2013-11-05 18:51:00,
2013-11-05 10:55:00,72.7,40.3,29.97,North,352,1.0,2.0,31,0.00,,,0.00,Wunderground v.1.15,2013-11-05 18:55:00,
2013-11-05 11:00:00,73.1,39.8,29.97,North,352,1.0,1.0,30,0.00,,,0.00,Wunderground v.1.15,2013-11-05 19:00:00,
2013-11-05 11:05:00,73.1,38.9,29.97,NE,54,1.0,2.0,29,0.00,,,0.00,Wunderground v.1.15,2013-11-05 19:05:00,
2013-11-05 11:10:00,73.4,38.3,29.97,WNW,291,1.0,2.0,28,0.00,,,0.00,Wunderground v.1.15,2013-11-05 19:10:00,
2013-11-05 11:21:00,73.8,35.8,29.97,NW,313,2.0,2.0,25,0.00,,,0.00,Wunderground v.1.15,2013-11-05 19:21:00,
2013-11-05 11:25:00,74.1,37.0,29.97,NW,313,2.0,2.0,26,0.00,,,0.00,Wunderground v.1.15,2013-11-05 19:25:00,
2013-11-05 11:35:00,74.5,35.3,29.96,North,0,2.0,2.0,24,0.00,,,0.00,Wunderground v.1.15,2013-11-05 19:35:00,
2013-11-05 11:40:00,74.6,35.4,29.96,North,0,2.0,5.0,24,0.00,,,0.00,Wunderground v.1.15,2013-11-05 19:40:00,
2013-11-05 11:50:00,74.6,33.2,29.95,NNE,13,1.0,3.0,22,0.00,,,0.00,Wunderground v.1.15,2013-11-05 19:50:00,
2013-11-05 12:05:00,76.2,34.6,29.95,NNW,340,1.0,1.0,22,0.00,,,0.00,Wunderground v.1.15,2013-11-05 20:05:00,
2013-11-05 12:20:00,76.2,38.8,29.94,SSE,155,2.0,5.0,26,0.00,,,0.00,Wunderground v.1.15,2013-11-05 20:20:00,
2013-11-05 12:25:00,76.1,36.7,29.94,WNW,288,2.0,5.0,24,0.00,,,0.00,Wunderground v.1.15,2013-11-05 20:25:00,
2013-11-05 12:35:00,75.9,37.5,29.93,SW,233,2.0,5.0,25,0.00,,,0.00,Wunderground v.1.15,2013-11-05 20:35:00,
2013-11-05 12:40:00,75.9,37.5,29.93,WSW,243,4.0,6.0,25,0.00,,,0.00,Wunderground v.1.15,2013-11-05 20:40:00,
2013-11-05 13:05:00,75.0,37.8,29.93,WSW,256,6.0,6.0,26,0.00,,,0.00,Wunderground v.1.15,2013-11-05 21:05:00,
2013-11-05 13:10:00,75.2,36.9,29.93,SSW,208,5.0,6.0,25,0.00,,,0.00,Wunderground v.1.15,2013-11-05 21:10:00,
2013-11-05 13:15:00,75.3,37.0,29.93,WSW,257,5.0,5.0,25,0.00,,,0.00,Wunderground v.1.15,2013-11-05 21:15:00,
2013-11-05 13:20:00,75.3,37.0,29.93,WSW,241,5.0,6.0,25,0.00,,,0.00,Wunderground v.1.15,2013-11-05 21:20:00,
2013-11-05 13:35:00,75.5,35.1,29.92,WSW,253,4.0,6.0,23,0.00,,,0.00,Wunderground v.1.15,2013-11-05 21:35:00,
2013-11-05 13:45:00,75.5,37.2,29.92,WSW,254,6.0,6.0,25,0.00,,,0.00,Wunderground v.1.15,2013-11-05 21:45:00,
2013-11-05 13:50:00,75.7,37.4,29.92,West,260,6.0,7.0,25,0.00,,,0.00,Wunderground v.1.15,2013-11-05 21:50:00,
2013-11-05 13:55:00,75.7,37.4,29.92,SSW,206,5.0,5.0,25,0.00,,,0.00,Wunderground v.1.15,2013-11-05 21:55:00,
2013-11-05 14:00:00,75.5,36.2,29.92,SW,232,6.0,6.0,24,0.00,,,0.00,Wunderground v.1.15,2013-11-05 22:00:00,
2013-11-05 14:15:00,75.7,35.3,29.93,SW,223,5.0,6.0,23,0.00,,,0.00,Wunderground v.1.15,2013-11-05 22:15:00,
2013-11-05 14:26:00,75.0,33.6,29.93,SW,236,6.0,6.0,22,0.00,,,0.00,Wunderground v.1.15,2013-11-05 22:26:00,
2013-11-05 14:35:00,75.7,31.8,29.92,West,280,4.0,6.0,20,0.00,,,0.00,Wunderground v.1.15,2013-11-05 22:35:00,
2013-11-05 14:40:00,75.7,33.0,29.92,WSW,257,5.0,6.0,21,0.00,,,0.00,Wunderground v.1.15,2013-11-05 22:40:00,
2013-11-05 15:00:00,75.2,31.3,29.92,SW,219,6.0,6.0,20,0.00,,,0.00,Wunderground v.1.15,2013-11-05 23:00:00,
2013-11-05 15:05:00,75.2,32.6,29.92,SW,233,6.0,6.0,21,0.00,,,0.00,Wunderground v.1.15,2013-11-05 23:05:00,
2013-11-05 15:10:00,75.3,26.0,29.92,West,263,5.0,5.0,16,0.00,,,0.00,Wunderground v.1.15,2013-11-05 23:10:00,
2013-11-05 15:15:00,75.3,27.4,29.92,WSW,248,4.0,5.0,17,0.00,,,0.00,Wunderground v.1.15,2013-11-05 23:15:00,
2013-11-05 15:31:00,75.9,31.9,29.92,West,261,4.0,4.0,20,0.00,,,0.00,Wunderground v.1.15,2013-11-05 23:31:00,
2013-11-05 15:40:00,75.7,31.8,29.92,WSW,256,4.0,4.0,20,0.00,,,0.00,Wunderground v.1.15,2013-11-05 23:40:00,
2013-11-05 15:45:00,75.5,31.6,29.92,WSW,246,4.0,4.0,20,0.00,,,0.00,Wunderground v.1.15,2013-11-05 23:45:00,
2013-11-05 15:50:00,75.5,31.6,29.93,West,260,4.0,5.0,20,0.00,,,0.00,Wunderground v.1.15,2013-11-05 23:50:00,
2013-11-05 16:05:00,75.2,32.6,29.93,SW,236,4.0,5.0,21,0.00,,,0.00,Wunderground v.1.15,2013-11-06 00:05:00,
2013-11-05 16:15:00,74.8,32.2,29.93,NW,325,3.0,4.0,21,0.00,,,0.00,Wunderground v.1.15,2013-11-06 00:15:00,
2013-11-05 16:20:00,74.5,33.1,29.93,West,277,4.0,4.0,22,0.00,,,0.00,Wunderground v.1.15,2013-11-06 00:20:00,
2013-11-05 16:25:00,73.9,33.7,29.93,WNW,302,4.0,4.0,23,0.00,,,0.00,Wunderground v.1.15,2013-11-06 00:25:00,
2013-11-05 16:40:00,72.5,32.6,29.93,NW,323,4.0,6.0,23,0.00,,,0.00,Wunderground v.1.15,2013-11-06 00:40:00,
2013-11-05 16:45:00,71.7,30.8,29.93,NW,323,4.0,7.0,22,0.00,,,0.00,Wunderground v.1.15,2013-11-06 00:45:00,
2013-11-05 16:50:00,71.2,30.4,29.94,NW,322,5.0,6.0,22,0.00,,,0.00,Wunderground v.1.15,2013-11-06 00:50:00,
2013-11-05 16:55:00,70.6,29.9,29.94,WNW,302,5.0,6.0,22,0.00,,,0.00,Wunderground v.1.15,2013-11-06 00:55:00,
2013-11-05 17:10:00,68.9,30.6,29.94,WNW,294,5.0,8.0,24,0.00,,,0.00,Wunderground v.1.15,2013-11-06 01:10:00,
2013-11-05 17:15:00,68.6,31.3,29.94,NNW,328,5.0,8.0,25,0.00,,,0.00,Wunderground v.1.15,2013-11-06 01:15:00,
2013-11-05 17:20:00,68.3,32.1,29.94,NNW,333,3.0,5.0,26,0.00,,,0.00,Wunderground v.1.15,2013-11-06 01:20:00,
2013-11-05 17:25:00,67.9,32.7,29.94,NNW,333,2.0,5.0,27,0.00,,,0.00,Wunderground v.1.15,2013-11-06 01:25:00,
2013-11-05 17:36:00,66.9,33.6,29.95,NW,320,3.0,3.0,29,0.00,,,0.00,Wunderground v.1.15,2013-11-06 01:36:00,
2013-11-05 17:40:00,66.6,34.2,29.95,NNW,333,3.0,3.0,30,0.00,,,0.00,Wunderground v.1.15,2013-11-06 01:40:00,
2013-11-05 17:45:00,66.3,34.7,29.95,NW,322,2.0,4.0,31,0.00,,,0.00,Wunderground v.1.15,2013-11-06 01:45:00,
2013-11-05 17:50:00,65.9,35.2,29.95,NNW,329,3.0,3.0,32,0.00,,,0.00,Wunderground v.1.15,2013-11-06 01:50:00,
2013-11-05 18:05:00,65.3,36.9,29.96,NW,319,3.0,3.0,35,0.00,,,0.00,Wunderground v.1.15,2013-11-06 02:05:00,
2013-11-05 18:15:00,64.8,36.5,29.96,NW,323,2.0,2.0,35,0.00,,,0.00,Wunderground v.1.15,2013-11-06 02:15:00,
2013-11-05 18:25:00,64.3,36.0,29.97,NW,325,1.0,1.0,35,0.00,,,0.00,Wunderground v.1.15,2013-11-06 02:25:00,
2013-11-05 18:30:00,64.0,37.2,29.97,NW,325,1.0,1.0,37,0.00,,,0.00,Wunderground v.1.15,2013-11-06 02:30:00,
2013-11-05 18:45:00,62.5,39.7,29.97,NW,325,0.0,0.0,43,0.00,,,0.00,Wunderground v.1.15,2013-11-06 02:45:00,
2013-11-05 18:50:00,62.2,39.4,29.97,NW,325,0.0,0.0,43,0.00,,,0.00,Wunderground v.1.15,2013-11-06 02:50:00,
2013-11-05 18:55:00,61.9,39.7,29.97,NW,325,0.0,0.0,44,0.00,,,0.00,Wunderground v.1.15,2013-11-06 02:55:00,
2013-11-05 19:05:00,60.9,40.0,29.97,NW,325,0.0,0.0,46,0.00,,,0.00,Wunderground v.1.15,2013-11-06 03:05:00,
2013-11-05 19:10:00,60.5,40.7,29.97,NW,325,0.0,0.0,48,0.00,,,0.00,Wunderground v.1.15,2013-11-06 03:10:00,
2013-11-05 19:15:00,60.1,40.3,29.97,NW,325,0.0,0.0,48,0.00,,,0.00,Wunderground v.1.15,2013-11-06 03:15:00,
2013-11-05 19:30:00,59.0,39.9,29.97,NW,325,1.0,1.0,49,0.00,,,0.00,Wunderground v.1.15,2013-11-06 03:30:00,
2013-11-05 19:35:00,58.9,39.8,29.98,NW,325,0.0,1.0,49,0.00,,,0.00,Wunderground v.1.15,2013-11-06 03:35:00,
2013-11-05 19:40:00,58.7,39.6,29.98,NW,325,0.0,0.0,49,0.00,,,0.00,Wunderground v.1.15,2013-11-06 03:40:00,
2013-11-05 19:51:00,58.1,39.5,29.98,NW,325,0.0,0.0,50,0.00,,,0.00,Wunderground v.1.15,2013-11-06 03:51:00,
2013-11-05 19:55:00,57.8,39.3,29.98,NW,325,0.0,0.0,50,0.00,,,0.00,Wunderground v.1.15,2013-11-06 03:55:00,
2013-11-05 20:00:00,57.5,39.5,29.98,NW,325,0.0,1.0,51,0.00,,,0.00,Wunderground v.1.15,2013-11-06 04:00:00,
2013-11-05 20:15:00,57.1,40.1,29.99,NW,325,0.0,0.0,53,0.00,,,0.00,Wunderground v.1.15,2013-11-06 04:15:00,
2013-11-05 20:20:00,56.8,39.8,29.99,NW,325,0.0,0.0,53,0.00,,,0.00,Wunderground v.1.15,2013-11-06 04:20:00,
2013-11-05 20:25:00,56.6,39.7,29.99,NW,325,0.0,0.0,53,0.00,,,0.00,Wunderground v.1.15,2013-11-06 04:25:00,
2013-11-05 20:30:00,56.5,40.0,29.99,NW,325,0.0,0.0,54,0.00,,,0.00,Wunderground v.1.15,2013-11-06 04:30:00,
2013-11-05 20:35:00,56.3,39.9,29.99,NW,325,0.0,0.0,54,0.00,,,0.00,Wunderground v.1.15,2013-11-06 04:35:00,
2013-11-05 20:50:00,55.7,40.7,30.00,NW,325,0.0,0.0,57,0.00,,,0.00,Wunderground v.1.15,2013-11-06 04:50:00,
2013-11-05 20:55:00,55.4,40.4,30.00,NW,325,0.0,0.0,57,0.00,,,0.00,Wunderground v.1.15,2013-11-06 04:55:00,
2013-11-05 21:00:00,55.2,40.2,30.00,NW,325,0.0,0.0,57,0.00,,,0.00,Wunderground v.1.15,2013-11-06 05:00:00,
2013-11-05 21:15:00,55.0,40.5,30.00,NW,325,0.0,0.0,58,0.00,,,0.00,Wunderground v.1.15,2013-11-06 05:15:00,
2013-11-05 21:20:00,54.8,40.7,30.00,NW,325,0.0,0.0,59,0.00,,,0.00,Wunderground v.1.15,2013-11-06 05:20:00,
2013-11-05 21:25:00,54.7,40.6,30.00,NW,325,0.0,0.0,59,0.00,,,0.00,Wunderground v.1.15,2013-11-06 05:25:00,
2013-11-05 21:35:00,54.2,40.6,30.01,NW,325,0.0,0.0,60,0.00,,,0.00,Wunderground v.1.15,2013-11-06 05:35:00,
2013-11-05 21:40:00,54.1,40.9,30.01,NW,325,0.0,0.0,61,0.00,,,0.00,Wunderground v.1.15,2013-11-06 05:40:00,
2013-11-05 21:45:00,53.9,40.8,30.01,NW,325,0.0,0.0,61,0.00,,,0.00,Wunderground v.1.15,2013-11-06 05:45:00,
2013-11-05 21:55:00,53.9,40.8,30.01,NW,325,0.0,0.0,61,0.00,,,0.00,Wunderground v.1.15,2013-11-06 05:55:00,
2013-11-05 22:00:00,53.8,40.7,30.01,NW,325,0.0,0.0,61,0.00,,,0.00,Wunderground v.1.15,2013-11-06 06:00:00,
2013-11-05 22:05:00,53.6,40.5,30.01,NW,325,1.0,1.0,61,0.00,,,0.00,Wunderground v.1.15,2013-11-06 06:05:00,
2013-11-05 22:20:00,53.0,40.7,30.01,NW,325,0.0,0.0,63,0.00,,,0.00,Wunderground v.1.15,2013-11-06 06:20:00,
2013-11-05 22:25:00,52.9,40.6,30.01,NW,325,0.0,1.0,63,0.00,,,0.00,Wunderground v.1.15,2013-11-06 06:25:00,
2013-11-05 22:40:00,53.0,40.7,30.00,NW,325,1.0,1.0,63,0.00,,,0.00,Wunderground v.1.15,2013-11-06 06:40:00,
2013-11-05 22:45:00,53.0,40.3,30.00,NW,325,1.0,1.0,62,0.00,,,0.00,Wunderground v.1.15,2013-11-06 06:45:00,
2013-11-05 22:55:00,53.0,39.9,30.00,NW,325,0.0,0.0,61,0.00,,,0.00,Wunderground v.1.15,2013-11-06 06:55:00,
2013-11-05 23:00:00,53.0,40.3,30.00,NW,325,0.0,0.0,62,0.00,,,0.00,Wunderground v.1.15,2013-11-06 07:00:00,
2013-11-05 23:15:00,52.3,39.7,30.01,NW,325,0.0,0.0,62,0.00,,,0.00,Wunderground v.1.15,2013-11-06 07:15:00,
2013-11-05 23:20:00,52.1,39.9,30.01,NW,325,0.0,0.0,63,0.00,,,0.00,Wunderground v.1.15,2013-11-06 07:20:00,
2013-11-05 23:30:00,51.8,39.2,30.01,NW,325,1.0,1.0,62,0.00,,,0.00,Wunderground v.1.15,2013-11-06 07:30:00,
2013-11-05 23:45:00,51.7,37.8,30.01,NW,325,0.0,0.0,59,0.00,,,0.00,Wunderground v.1.15,2013-11-06 07:45:00,
2013-11-05 23:50:00,51.7,37.8,30.01,NW,325,1.0,1.0,59,0.00,,,0.00,Wunderground v.1.15,2013-11-06 07:50:00,
2013-11-05 23:55:00,51.7,38.3,30.01,NW,325,1.0,2.0,60,0.00,,,0.00,Wunderground v.1.15,2013-11-06 07:55:00,